sensor_id;sensor_type;location;lat;lon;timestamp;P1;durP1;ratioP1;P2;durP2;ratioP2
19414;SDS011;9843;48.882;12.592;2022-09-09T00:01:37;7.63;;;6.33;;
19414;SDS011;9843;48.882;12.592;2022-09-09T00:04:14;6.53;;;5.93;;
19414;SDS011;9843;48.882;12.592;2022-09-09T00:06:49;9.87;;;7.53;;
19414;SDS011;9843;48.882;12.592;2022-09-09T00:09:28;7.47;;;6.87;;
19414;SDS011;9843;48.882;12.592;2022-09-09T00:11:58;7.80;;;6.47;;
19414;SDS011;9843;48.882;12.592;2022-09-09T00:14:33;7.30;;;6.60;;
19414;SDS011;9843;48.882;12.592;2022-09-09T00:17:06;8.63;;;6.97;;
19414;SDS011;9843;48.882;12.592;2022-09-09T00:19:41;7.20;;;6.50;;
19414;SDS011;9843;48.882;12.592;2022-09-09T00:22:16;6.97;;;6.27;;
19414;SDS011;9843;48.882;12.592;2022-09-09T00:24:45;6.63;;;5.93;;
19414;SDS011;9843;48.882;12.592;2022-09-09T00:27:16;6.93;;;6.27;;
19414;SDS011;9843;48.882;12.592;2022-09-09T00:29:51;7.93;;;6.40;;
19414;SDS011;9843;48.882;12.592;2022-09-09T00:32:21;8.60;;;6.90;;
19414;SDS011;9843;48.882;12.592;2022-09-09T00:34:50;6.97;;;6.13;;
19414;SDS011;9843;48.882;12.592;2022-09-09T00:37:21;10.40;;;6.27;;
19414;SDS011;9843;48.882;12.592;2022-09-09T00:39:50;8.27;;;7.43;;
19414;SDS011;9843;48.882;12.592;2022-09-09T00:42:23;10.87;;;7.47;;
19414;SDS011;9843;48.882;12.592;2022-09-09T00:44:53;8.87;;;7.53;;
19414;SDS011;9843;48.882;12.592;2022-09-09T00:47:34;8.83;;;8.03;;
19414;SDS011;9843;48.882;12.592;2022-09-09T00:50:12;10.90;;;7.50;;
19414;SDS011;9843;48.882;12.592;2022-09-09T00:52:51;9.23;;;7.27;;
19414;SDS011;9843;48.882;12.592;2022-09-09T00:55:31;7.20;;;6.50;;
19414;SDS011;9843;48.882;12.592;2022-09-09T00:58:08;8.13;;;7.27;;
19414;SDS011;9843;48.882;12.592;2022-09-09T01:00:38;8.63;;;7.70;;
19414;SDS011;9843;48.882;12.592;2022-09-09T01:06:02;9.80;;;8.80;;
19414;SDS011;9843;48.882;12.592;2022-09-09T01:08:58;11.83;;;8.83;;
19414;SDS011;9843;48.882;12.592;2022-09-09T01:11:49;10.13;;;9.10;;
19414;SDS011;9843;48.882;12.592;2022-09-09T01:14:29;8.87;;;7.97;;
19414;SDS011;9843;48.882;12.592;2022-09-09T01:17:03;13.77;;;7.67;;
19414;SDS011;9843;48.882;12.592;2022-09-09T01:19:37;11.53;;;7.97;;
19414;SDS011;9843;48.882;12.592;2022-09-09T01:22:20;8.43;;;7.60;;
19414;SDS011;9843;48.882;12.592;2022-09-09T01:25:02;10.67;;;7.90;;
19414;SDS011;9843;48.882;12.592;2022-09-09T01:27:41;7.63;;;6.67;;
19414;SDS011;9843;48.882;12.592;2022-09-09T01:30:10;7.70;;;7.00;;
19414;SDS011;9843;48.882;12.592;2022-09-09T01:32:40;8.17;;;7.47;;
19414;SDS011;9843;48.882;12.592;2022-09-09T01:35:10;9.07;;;8.10;;
19414;SDS011;9843;48.882;12.592;2022-09-09T01:37:41;8.20;;;7.40;;
19414;SDS011;9843;48.882;12.592;2022-09-09T01:40:08;13.30;;;8.87;;
19414;SDS011;9843;48.882;12.592;2022-09-09T01:42:35;11.17;;;9.03;;
19414;SDS011;9843;48.882;12.592;2022-09-09T01:45:03;16.00;;;9.70;;
19414;SDS011;9843;48.882;12.592;2022-09-09T01:47:31;9.00;;;8.03;;
19414;SDS011;9843;48.882;12.592;2022-09-09T01:49:58;10.30;;;8.53;;
19414;SDS011;9843;48.882;12.592;2022-09-09T01:52:26;23.37;;;8.77;;
19414;SDS011;9843;48.882;12.592;2022-09-09T01:54:53;9.17;;;7.97;;
19414;SDS011;9843;48.882;12.592;2022-09-09T01:57:21;8.47;;;7.80;;
19414;SDS011;9843;48.882;12.592;2022-09-09T01:59:57;14.70;;;8.07;;
19414;SDS011;9843;48.882;12.592;2022-09-09T02:02:32;9.10;;;8.07;;
19414;SDS011;9843;48.882;12.592;2022-09-09T02:05:06;10.87;;;9.83;;
19414;SDS011;9843;48.882;12.592;2022-09-09T02:07:41;11.30;;;9.33;;
19414;SDS011;9843;48.882;12.592;2022-09-09T02:10:11;9.50;;;8.60;;
19414;SDS011;9843;48.882;12.592;2022-09-09T02:12:42;10.13;;;8.87;;
19414;SDS011;9843;48.882;12.592;2022-09-09T02:15:14;9.90;;;8.47;;
19414;SDS011;9843;48.882;12.592;2022-09-09T02:17:47;10.53;;;8.43;;
19414;SDS011;9843;48.882;12.592;2022-09-09T02:20:18;12.73;;;10.03;;
19414;SDS011;9843;48.882;12.592;2022-09-09T02:22:46;18.43;;;9.93;;
19414;SDS011;9843;48.882;12.592;2022-09-09T02:25:17;11.57;;;10.43;;
19414;SDS011;9843;48.882;12.592;2022-09-09T02:27:46;11.90;;;8.37;;
19414;SDS011;9843;48.882;12.592;2022-09-09T02:30:15;12.57;;;9.10;;
19414;SDS011;9843;48.882;12.592;2022-09-09T02:32:43;10.20;;;8.87;;
19414;SDS011;9843;48.882;12.592;2022-09-09T02:35:15;11.20;;;9.20;;
19414;SDS011;9843;48.882;12.592;2022-09-09T02:37:44;10.00;;;9.10;;
19414;SDS011;9843;48.882;12.592;2022-09-09T02:40:12;10.10;;;8.97;;
19414;SDS011;9843;48.882;12.592;2022-09-09T02:42:41;12.23;;;7.70;;
19414;SDS011;9843;48.882;12.592;2022-09-09T02:45:09;15.97;;;11.10;;
19414;SDS011;9843;48.882;12.592;2022-09-09T02:47:38;10.00;;;8.97;;
19414;SDS011;9843;48.882;12.592;2022-09-09T02:50:14;16.60;;;9.73;;
19414;SDS011;9843;48.882;12.592;2022-09-09T02:52:48;10.30;;;9.30;;
19414;SDS011;9843;48.882;12.592;2022-09-09T02:55:27;14.57;;;9.70;;
19414;SDS011;9843;48.882;12.592;2022-09-09T02:58:01;19.13;;;11.40;;
19414;SDS011;9843;48.882;12.592;2022-09-09T03:00:31;13.20;;;11.70;;
19414;SDS011;9843;48.882;12.592;2022-09-09T03:02:58;13.87;;;9.43;;
19414;SDS011;9843;48.882;12.592;2022-09-09T03:05:26;13.13;;;10.17;;
19414;SDS011;9843;48.882;12.592;2022-09-09T03:07:53;12.17;;;10.90;;
19414;SDS011;9843;48.882;12.592;2022-09-09T03:10:20;15.93;;;11.83;;
19414;SDS011;9843;48.882;12.592;2022-09-09T03:12:47;18.27;;;10.73;;
19414;SDS011;9843;48.882;12.592;2022-09-09T03:15:13;26.37;;;13.07;;
19414;SDS011;9843;48.882;12.592;2022-09-09T03:17:41;14.50;;;12.90;;
19414;SDS011;9843;48.882;12.592;2022-09-09T03:20:08;14.27;;;12.80;;
19414;SDS011;9843;48.882;12.592;2022-09-09T03:22:36;14.37;;;12.37;;
19414;SDS011;9843;48.882;12.592;2022-09-09T03:25:04;14.33;;;12.87;;
19414;SDS011;9843;48.882;12.592;2022-09-09T03:27:31;14.53;;;13.03;;
19414;SDS011;9843;48.882;12.592;2022-09-09T03:29:58;17.80;;;12.67;;
19414;SDS011;9843;48.882;12.592;2022-09-09T03:32:28;14.77;;;11.03;;
19414;SDS011;9843;48.882;12.592;2022-09-09T03:34:56;20.80;;;14.07;;
19414;SDS011;9843;48.882;12.592;2022-09-09T03:37:23;15.93;;;13.67;;
19414;SDS011;9843;48.882;12.592;2022-09-09T03:39:51;24.40;;;13.30;;
19414;SDS011;9843;48.882;12.592;2022-09-09T03:42:19;15.63;;;13.10;;
19414;SDS011;9843;48.882;12.592;2022-09-09T03:44:46;15.57;;;13.97;;
19414;SDS011;9843;48.882;12.592;2022-09-09T03:47:15;17.70;;;13.20;;
19414;SDS011;9843;48.882;12.592;2022-09-09T03:49:42;24.10;;;14.23;;
19414;SDS011;9843;48.882;12.592;2022-09-09T03:52:09;22.20;;;13.70;;
19414;SDS011;9843;48.882;12.592;2022-09-09T03:54:36;17.20;;;12.77;;
19414;SDS011;9843;48.882;12.592;2022-09-09T03:57:04;20.37;;;14.37;;
19414;SDS011;9843;48.882;12.592;2022-09-09T03:59:31;19.63;;;13.67;;
19414;SDS011;9843;48.882;12.592;2022-09-09T04:01:58;15.40;;;12.27;;
19414;SDS011;9843;48.882;12.592;2022-09-09T04:04:25;14.50;;;12.83;;
19414;SDS011;9843;48.882;12.592;2022-09-09T04:06:52;14.70;;;13.37;;
19414;SDS011;9843;48.882;12.592;2022-09-09T04:09:18;16.27;;;14.60;;
19414;SDS011;9843;48.882;12.592;2022-09-09T04:11:45;27.30;;;14.77;;
19414;SDS011;9843;48.882;12.592;2022-09-09T04:14:13;15.33;;;12.73;;
19414;SDS011;9843;48.882;12.592;2022-09-09T04:16:40;13.10;;;11.73;;
19414;SDS011;9843;48.882;12.592;2022-09-09T04:19:09;15.07;;;13.57;;
19414;SDS011;9843;48.882;12.592;2022-09-09T04:21:37;13.77;;;12.13;;
19414;SDS011;9843;48.882;12.592;2022-09-09T04:24:05;17.13;;;12.67;;
19414;SDS011;9843;48.882;12.592;2022-09-09T04:26:33;19.00;;;14.27;;
19414;SDS011;9843;48.882;12.592;2022-09-09T04:29:01;21.17;;;13.33;;
19414;SDS011;9843;48.882;12.592;2022-09-09T04:31:29;15.10;;;12.20;;
19414;SDS011;9843;48.882;12.592;2022-09-09T04:33:56;18.20;;;12.83;;
19414;SDS011;9843;48.882;12.592;2022-09-09T04:36:23;21.33;;;15.67;;
19414;SDS011;9843;48.882;12.592;2022-09-09T04:38:50;14.07;;;12.70;;
19414;SDS011;9843;48.882;12.592;2022-09-09T04:41:16;15.37;;;13.33;;
19414;SDS011;9843;48.882;12.592;2022-09-09T04:43:43;16.03;;;12.93;;
19414;SDS011;9843;48.882;12.592;2022-09-09T04:46:10;15.20;;;12.93;;
19414;SDS011;9843;48.882;12.592;2022-09-09T04:48:38;17.03;;;12.13;;
19414;SDS011;9843;48.882;12.592;2022-09-09T04:51:06;13.70;;;11.67;;
19414;SDS011;9843;48.882;12.592;2022-09-09T04:53:36;14.10;;;11.60;;
19414;SDS011;9843;48.882;12.592;2022-09-09T04:56:04;15.97;;;13.00;;
19414;SDS011;9843;48.882;12.592;2022-09-09T04:58:32;14.30;;;12.33;;
19414;SDS011;9843;48.882;12.592;2022-09-09T05:01:03;23.70;;;13.43;;
19414;SDS011;9843;48.882;12.592;2022-09-09T05:03:30;15.33;;;13.73;;
19414;SDS011;9843;48.882;12.592;2022-09-09T05:06:03;19.17;;;13.20;;
19414;SDS011;9843;48.882;12.592;2022-09-09T05:08:31;17.33;;;12.03;;
19414;SDS011;9843;48.882;12.592;2022-09-09T05:10:58;18.67;;;13.13;;
19414;SDS011;9843;48.882;12.592;2022-09-09T05:13:25;23.23;;;12.20;;
19414;SDS011;9843;48.882;12.592;2022-09-09T05:15:52;20.10;;;13.43;;
19414;SDS011;9843;48.882;12.592;2022-09-09T05:18:19;13.10;;;11.80;;
19414;SDS011;9843;48.882;12.592;2022-09-09T05:20:47;15.90;;;14.27;;
19414;SDS011;9843;48.882;12.592;2022-09-09T05:23:15;18.43;;;14.73;;
19414;SDS011;9843;48.882;12.592;2022-09-09T05:25:42;14.17;;;12.70;;
19414;SDS011;9843;48.882;12.592;2022-09-09T05:28:08;19.30;;;12.67;;
19414;SDS011;9843;48.882;12.592;2022-09-09T05:30:36;16.13;;;14.43;;
19414;SDS011;9843;48.882;12.592;2022-09-09T05:33:03;15.67;;;12.90;;
19414;SDS011;9843;48.882;12.592;2022-09-09T05:35:31;16.83;;;13.43;;
19414;SDS011;9843;48.882;12.592;2022-09-09T05:37:59;15.30;;;12.77;;
19414;SDS011;9843;48.882;12.592;2022-09-09T05:40:28;15.10;;;13.60;;
19414;SDS011;9843;48.882;12.592;2022-09-09T05:42:55;18.37;;;13.10;;
19414;SDS011;9843;48.882;12.592;2022-09-09T05:45:25;19.23;;;13.77;;
19414;SDS011;9843;48.882;12.592;2022-09-09T05:47:52;20.13;;;12.43;;
19414;SDS011;9843;48.882;12.592;2022-09-09T05:50:20;15.80;;;12.47;;
19414;SDS011;9843;48.882;12.592;2022-09-09T05:52:46;12.83;;;11.53;;
19414;SDS011;9843;48.882;12.592;2022-09-09T05:55:14;14.23;;;12.17;;
19414;SDS011;9843;48.882;12.592;2022-09-09T05:57:42;13.90;;;11.60;;
19414;SDS011;9843;48.882;12.592;2022-09-09T06:00:14;16.40;;;11.47;;
19414;SDS011;9843;48.882;12.592;2022-09-09T06:02:41;14.13;;;11.87;;
19414;SDS011;9843;48.882;12.592;2022-09-09T06:05:08;15.43;;;13.03;;
19414;SDS011;9843;48.882;12.592;2022-09-09T06:07:35;14.70;;;11.93;;
19414;SDS011;9843;48.882;12.592;2022-09-09T06:10:02;14.07;;;12.63;;
19414;SDS011;9843;48.882;12.592;2022-09-09T06:12:29;14.63;;;13.13;;
19414;SDS011;9843;48.882;12.592;2022-09-09T06:14:59;12.73;;;11.43;;
19414;SDS011;9843;48.882;12.592;2022-09-09T06:17:26;14.73;;;11.40;;
19414;SDS011;9843;48.882;12.592;2022-09-09T06:19:52;16.87;;;11.30;;
19414;SDS011;9843;48.882;12.592;2022-09-09T06:22:20;13.37;;;10.67;;
19414;SDS011;9843;48.882;12.592;2022-09-09T06:24:46;13.33;;;11.47;;
19414;SDS011;9843;48.882;12.592;2022-09-09T06:27:13;14.77;;;11.53;;
19414;SDS011;9843;48.882;12.592;2022-09-09T06:29:40;10.60;;;8.60;;
19414;SDS011;9843;48.882;12.592;2022-09-09T06:32:08;8.43;;;7.50;;
19414;SDS011;9843;48.882;12.592;2022-09-09T06:34:34;9.17;;;8.23;;
19414;SDS011;9843;48.882;12.592;2022-09-09T06:37:01;8.50;;;7.47;;
19414;SDS011;9843;48.882;12.592;2022-09-09T06:39:28;11.40;;;6.57;;
19414;SDS011;9843;48.882;12.592;2022-09-09T06:41:55;6.60;;;6.00;;
19414;SDS011;9843;48.882;12.592;2022-09-09T06:44:23;8.60;;;6.80;;
19414;SDS011;9843;48.882;12.592;2022-09-09T06:46:51;7.20;;;6.53;;
19414;SDS011;9843;48.882;12.592;2022-09-09T06:49:19;7.70;;;5.60;;
19414;SDS011;9843;48.882;12.592;2022-09-09T06:51:46;7.07;;;6.33;;
19414;SDS011;9843;48.882;12.592;2022-09-09T06:54:14;6.57;;;5.60;;
19414;SDS011;9843;48.882;12.592;2022-09-09T06:56:41;8.00;;;5.80;;
19414;SDS011;9843;48.882;12.592;2022-09-09T06:59:10;7.23;;;6.53;;
19414;SDS011;9843;48.882;12.592;2022-09-09T07:01:38;8.47;;;6.73;;
19414;SDS011;9843;48.882;12.592;2022-09-09T07:04:06;7.73;;;6.50;;
19414;SDS011;9843;48.882;12.592;2022-09-09T07:06:37;8.37;;;6.30;;
19414;SDS011;9843;48.882;12.592;2022-09-09T07:09:06;11.37;;;6.23;;
19414;SDS011;9843;48.882;12.592;2022-09-09T07:11:36;7.27;;;6.53;;
19414;SDS011;9843;48.882;12.592;2022-09-09T07:14:04;8.03;;;7.20;;
19414;SDS011;9843;48.882;12.592;2022-09-09T07:16:31;8.73;;;7.10;;
19414;SDS011;9843;48.882;12.592;2022-09-09T07:18:58;10.93;;;6.93;;
19414;SDS011;9843;48.882;12.592;2022-09-09T07:21:26;9.63;;;7.67;;
19414;SDS011;9843;48.882;12.592;2022-09-09T07:23:55;8.70;;;6.43;;
19414;SDS011;9843;48.882;12.592;2022-09-09T07:26:23;7.37;;;6.67;;
19414;SDS011;9843;48.882;12.592;2022-09-09T07:28:51;11.17;;;7.70;;
19414;SDS011;9843;48.882;12.592;2022-09-09T07:31:19;9.97;;;9.07;;
19414;SDS011;9843;48.882;12.592;2022-09-09T07:33:47;8.90;;;8.10;;
19414;SDS011;9843;48.882;12.592;2022-09-09T07:36:14;12.33;;;8.93;;
19414;SDS011;9843;48.882;12.592;2022-09-09T07:38:43;8.43;;;7.63;;
19414;SDS011;9843;48.882;12.592;2022-09-09T07:41:13;11.00;;;8.43;;
19414;SDS011;9843;48.882;12.592;2022-09-09T07:43:43;8.67;;;6.83;;
19414;SDS011;9843;48.882;12.592;2022-09-09T07:46:11;13.73;;;6.13;;
19414;SDS011;9843;48.882;12.592;2022-09-09T07:48:43;6.50;;;5.20;;
19414;SDS011;9843;48.882;12.592;2022-09-09T07:51:11;6.57;;;4.83;;
19414;SDS011;9843;48.882;12.592;2022-09-09T07:53:40;9.03;;;5.83;;
19414;SDS011;9843;48.882;12.592;2022-09-09T07:56:07;7.27;;;5.73;;
19414;SDS011;9843;48.882;12.592;2022-09-09T07:58:37;7.10;;;5.37;;
19414;SDS011;9843;48.882;12.592;2022-09-09T08:01:08;8.33;;;5.20;;
19414;SDS011;9843;48.882;12.592;2022-09-09T08:03:36;5.77;;;4.93;;
19414;SDS011;9843;48.882;12.592;2022-09-09T08:06:04;7.53;;;5.70;;
19414;SDS011;9843;48.882;12.592;2022-09-09T08:08:33;5.40;;;4.90;;
19414;SDS011;9843;48.882;12.592;2022-09-09T08:11:01;11.47;;;5.57;;
19414;SDS011;9843;48.882;12.592;2022-09-09T08:13:30;15.17;;;4.97;;
19414;SDS011;9843;48.882;12.592;2022-09-09T08:16:04;14.63;;;4.87;;
19414;SDS011;9843;48.882;12.592;2022-09-09T08:18:32;6.87;;;5.43;;
19414;SDS011;9843;48.882;12.592;2022-09-09T08:21:04;7.30;;;5.00;;
19414;SDS011;9843;48.882;12.592;2022-09-09T08:23:33;5.17;;;4.67;;
19414;SDS011;9843;48.882;12.592;2022-09-09T08:26:04;5.77;;;5.17;;
19414;SDS011;9843;48.882;12.592;2022-09-09T08:28:33;7.53;;;6.03;;
19414;SDS011;9843;48.882;12.592;2022-09-09T08:31:08;7.33;;;5.20;;
19414;SDS011;9843;48.882;12.592;2022-09-09T08:33:37;6.27;;;5.60;;
19414;SDS011;9843;48.882;12.592;2022-09-09T08:36:05;7.00;;;6.07;;
19414;SDS011;9843;48.882;12.592;2022-09-09T08:38:33;7.13;;;5.63;;
19414;SDS011;9843;48.882;12.592;2022-09-09T08:41:04;7.17;;;4.37;;
19414;SDS011;9843;48.882;12.592;2022-09-09T08:43:41;5.93;;;5.20;;
19414;SDS011;9843;48.882;12.592;2022-09-09T08:46:12;8.47;;;5.20;;
19414;SDS011;9843;48.882;12.592;2022-09-09T08:48:51;10.53;;;6.33;;
19414;SDS011;9843;48.882;12.592;2022-09-09T08:51:23;8.37;;;5.37;;
19414;SDS011;9843;48.882;12.592;2022-09-09T08:53:52;9.53;;;6.30;;
19414;SDS011;9843;48.882;12.592;2022-09-09T08:56:21;15.10;;;7.40;;
19414;SDS011;9843;48.882;12.592;2022-09-09T08:58:50;5.63;;;5.03;;
19414;SDS011;9843;48.882;12.592;2022-09-09T09:01:26;8.77;;;5.40;;
19414;SDS011;9843;48.882;12.592;2022-09-09T09:04:21;9.33;;;8.27;;
19414;SDS011;9843;48.882;12.592;2022-09-09T09:07:14;13.30;;;6.47;;
19414;SDS011;9843;48.882;12.592;2022-09-09T09:09:50;16.33;;;8.03;;
19414;SDS011;9843;48.882;12.592;2022-09-09T09:12:25;10.17;;;7.17;;
19414;SDS011;9843;48.882;12.592;2022-09-09T09:14:54;9.27;;;6.87;;
19414;SDS011;9843;48.882;12.592;2022-09-09T09:17:24;7.70;;;6.93;;
19414;SDS011;9843;48.882;12.592;2022-09-09T09:19:55;8.57;;;5.97;;
19414;SDS011;9843;48.882;12.592;2022-09-09T09:22:22;11.70;;;7.27;;
19414;SDS011;9843;48.882;12.592;2022-09-09T09:25:00;15.87;;;8.60;;
19414;SDS011;9843;48.882;12.592;2022-09-09T09:27:36;10.63;;;8.00;;
19414;SDS011;9843;48.882;12.592;2022-09-09T09:30:12;15.20;;;8.90;;
19414;SDS011;9843;48.882;12.592;2022-09-09T09:32:53;23.97;;;9.17;;
19414;SDS011;9843;48.882;12.592;2022-09-09T09:35:22;10.13;;;9.07;;
19414;SDS011;9843;48.882;12.592;2022-09-09T09:37:49;9.63;;;8.67;;
19414;SDS011;9843;48.882;12.592;2022-09-09T09:40:16;9.97;;;8.20;;
19414;SDS011;9843;48.882;12.592;2022-09-09T09:42:51;9.93;;;8.93;;
19414;SDS011;9843;48.882;12.592;2022-09-09T09:45:26;15.33;;;9.30;;
19414;SDS011;9843;48.882;12.592;2022-09-09T09:48:00;15.70;;;8.20;;
19414;SDS011;9843;48.882;12.592;2022-09-09T09:50:28;10.53;;;8.63;;
19414;SDS011;9843;48.882;12.592;2022-09-09T09:52:56;11.23;;;8.73;;
19414;SDS011;9843;48.882;12.592;2022-09-09T09:55:25;8.90;;;7.93;;
19414;SDS011;9843;48.882;12.592;2022-09-09T09:57:52;14.10;;;8.83;;
19414;SDS011;9843;48.882;12.592;2022-09-09T10:00:21;17.53;;;9.63;;
19414;SDS011;9843;48.882;12.592;2022-09-09T10:02:49;11.57;;;7.67;;
19414;SDS011;9843;48.882;12.592;2022-09-09T10:05:22;13.93;;;10.53;;
19414;SDS011;9843;48.882;12.592;2022-09-09T10:08:00;11.40;;;10.23;;
19414;SDS011;9843;48.882;12.592;2022-09-09T10:10:34;15.57;;;9.67;;
19414;SDS011;9843;48.882;12.592;2022-09-09T10:13:15;10.37;;;9.23;;
19414;SDS011;9843;48.882;12.592;2022-09-09T10:15:51;18.17;;;10.37;;
19414;SDS011;9843;48.882;12.592;2022-09-09T10:18:35;10.40;;;9.10;;
19414;SDS011;9843;48.882;12.592;2022-09-09T10:21:11;13.40;;;9.53;;
19414;SDS011;9843;48.882;12.592;2022-09-09T10:23:52;11.70;;;8.93;;
19414;SDS011;9843;48.882;12.592;2022-09-09T10:26:35;19.17;;;10.50;;
19414;SDS011;9843;48.882;12.592;2022-09-09T10:29:14;14.30;;;9.13;;
19414;SDS011;9843;48.882;12.592;2022-09-09T10:31:52;9.23;;;8.27;;
19414;SDS011;9843;48.882;12.592;2022-09-09T10:34:39;9.97;;;8.97;;
19414;SDS011;9843;48.882;12.592;2022-09-09T10:37:22;10.17;;;8.53;;
19414;SDS011;9843;48.882;12.592;2022-09-09T10:39:59;9.57;;;8.63;;
19414;SDS011;9843;48.882;12.592;2022-09-09T10:42:38;10.50;;;8.90;;
19414;SDS011;9843;48.882;12.592;2022-09-09T10:45:08;8.73;;;7.93;;
19414;SDS011;9843;48.882;12.592;2022-09-09T10:47:47;12.50;;;9.50;;
19414;SDS011;9843;48.882;12.592;2022-09-09T10:50:29;9.17;;;8.37;;
19414;SDS011;9843;48.882;12.592;2022-09-09T10:53:11;13.20;;;9.13;;
19414;SDS011;9843;48.882;12.592;2022-09-09T10:55:44;9.47;;;8.47;;
19414;SDS011;9843;48.882;12.592;2022-09-09T10:58:17;8.87;;;8.03;;
19414;SDS011;9843;48.882;12.592;2022-09-09T11:00:52;15.70;;;8.43;;
19414;SDS011;9843;48.882;12.592;2022-09-09T11:03:23;10.57;;;9.43;;
19414;SDS011;9843;48.882;12.592;2022-09-09T11:05:53;13.00;;;9.67;;
19414;SDS011;9843;48.882;12.592;2022-09-09T11:08:25;12.37;;;8.57;;
19414;SDS011;9843;48.882;12.592;2022-09-09T11:10:55;13.37;;;10.67;;
19414;SDS011;9843;48.882;12.592;2022-09-09T11:13:27;11.30;;;10.10;;
19414;SDS011;9843;48.882;12.592;2022-09-09T11:16:01;11.97;;;10.80;;
19414;SDS011;9843;48.882;12.592;2022-09-09T11:18:31;11.97;;;9.47;;
19414;SDS011;9843;48.882;12.592;2022-09-09T11:21:05;13.17;;;10.13;;
19414;SDS011;9843;48.882;12.592;2022-09-09T11:23:45;16.73;;;10.07;;
19414;SDS011;9843;48.882;12.592;2022-09-09T11:26:18;11.97;;;9.87;;
19414;SDS011;9843;48.882;12.592;2022-09-09T11:28:57;11.80;;;8.93;;
19414;SDS011;9843;48.882;12.592;2022-09-09T11:31:42;10.20;;;9.10;;
19414;SDS011;9843;48.882;12.592;2022-09-09T11:34:26;10.87;;;9.37;;
19414;SDS011;9843;48.882;12.592;2022-09-09T11:37:10;9.50;;;8.57;;
19414;SDS011;9843;48.882;12.592;2022-09-09T11:40:03;10.67;;;8.23;;
19414;SDS011;9843;48.882;12.592;2022-09-09T11:42:40;14.67;;;7.23;;
19414;SDS011;9843;48.882;12.592;2022-09-09T11:45:11;9.00;;;8.17;;
19414;SDS011;9843;48.882;12.592;2022-09-09T11:47:52;11.07;;;7.67;;
19414;SDS011;9843;48.882;12.592;2022-09-09T11:50:35;8.40;;;6.73;;
19414;SDS011;9843;48.882;12.592;2022-09-09T11:53:04;6.70;;;6.07;;
19414;SDS011;9843;48.882;12.592;2022-09-09T11:55:43;7.37;;;6.03;;
19414;SDS011;9843;48.882;12.592;2022-09-09T11:58:15;6.73;;;4.80;;
19414;SDS011;9843;48.882;12.592;2022-09-09T12:00:44;5.30;;;4.73;;
19414;SDS011;9843;48.882;12.592;2022-09-09T12:06:11;4.47;;;3.43;;
19414;SDS011;9843;48.882;12.592;2022-09-09T12:08:43;4.53;;;3.70;;
19414;SDS011;9843;48.882;12.592;2022-09-09T12:11:22;6.37;;;3.57;;
19414;SDS011;9843;48.882;12.592;2022-09-09T12:13:52;6.27;;;3.27;;
19414;SDS011;9843;48.882;12.592;2022-09-09T12:16:31;10.20;;;4.53;;
19414;SDS011;9843;48.882;12.592;2022-09-09T12:19:03;2.73;;;2.50;;
19414;SDS011;9843;48.882;12.592;2022-09-09T12:21:33;2.17;;;1.97;;
19414;SDS011;9843;48.882;12.592;2022-09-09T12:24:06;4.63;;;2.00;;
19414;SDS011;9843;48.882;12.592;2022-09-09T12:26:37;2.53;;;2.13;;
19414;SDS011;9843;48.882;12.592;2022-09-09T12:29:12;3.40;;;2.10;;
19414;SDS011;9843;48.882;12.592;2022-09-09T12:31:48;2.70;;;2.50;;
19414;SDS011;9843;48.882;12.592;2022-09-09T12:34:25;2.93;;;2.27;;
19414;SDS011;9843;48.882;12.592;2022-09-09T12:37:02;4.07;;;2.50;;
19414;SDS011;9843;48.882;12.592;2022-09-09T12:39:32;4.07;;;2.27;;
19414;SDS011;9843;48.882;12.592;2022-09-09T12:42:14;16.60;;;2.57;;
19414;SDS011;9843;48.882;12.592;2022-09-09T12:44:50;2.53;;;2.00;;
19414;SDS011;9843;48.882;12.592;2022-09-09T12:47:21;3.17;;;1.40;;
19414;SDS011;9843;48.882;12.592;2022-09-09T12:49:51;4.20;;;1.80;;
19414;SDS011;9843;48.882;12.592;2022-09-09T12:52:20;1.93;;;1.07;;
19414;SDS011;9843;48.882;12.592;2022-09-09T12:54:55;1.10;;;1.00;;
19414;SDS011;9843;48.882;12.592;2022-09-09T12:57:24;2.77;;;1.30;;
19414;SDS011;9843;48.882;12.592;2022-09-09T13:00:03;6.30;;;1.63;;
19414;SDS011;9843;48.882;12.592;2022-09-09T13:02:33;2.70;;;1.50;;
19414;SDS011;9843;48.882;12.592;2022-09-09T13:05:06;3.63;;;1.27;;
19414;SDS011;9843;48.882;12.592;2022-09-09T13:07:39;1.67;;;1.20;;
19414;SDS011;9843;48.882;12.592;2022-09-09T13:10:09;4.37;;;1.93;;
19414;SDS011;9843;48.882;12.592;2022-09-09T13:12:38;5.70;;;1.03;;
19414;SDS011;9843;48.882;12.592;2022-09-09T13:15:09;1.83;;;1.10;;
19414;SDS011;9843;48.882;12.592;2022-09-09T13:17:48;6.43;;;1.30;;
19414;SDS011;9843;48.882;12.592;2022-09-09T13:20:17;2.37;;;1.37;;
19414;SDS011;9843;48.882;12.592;2022-09-09T13:22:46;3.20;;;1.10;;
19414;SDS011;9843;48.882;12.592;2022-09-09T13:25:17;8.50;;;1.13;;
19414;SDS011;9843;48.882;12.592;2022-09-09T13:27:53;2.00;;;1.70;;
19414;SDS011;9843;48.882;12.592;2022-09-09T13:30:25;2.50;;;1.50;;
19414;SDS011;9843;48.882;12.592;2022-09-09T13:33:19;3.13;;;1.23;;
19414;SDS011;9843;48.882;12.592;2022-09-09T13:35:49;8.13;;;1.50;;
19414;SDS011;9843;48.882;12.592;2022-09-09T13:38:19;1.97;;;1.17;;
19414;SDS011;9843;48.882;12.592;2022-09-09T13:40:57;1.20;;;1.10;;
19414;SDS011;9843;48.882;12.592;2022-09-09T13:43:28;1.97;;;1.17;;
19414;SDS011;9843;48.882;12.592;2022-09-09T13:45:58;1.13;;;0.70;;
19414;SDS011;9843;48.882;12.592;2022-09-09T13:48:26;3.50;;;1.10;;
19414;SDS011;9843;48.882;12.592;2022-09-09T13:50:59;1.43;;;0.80;;
19414;SDS011;9843;48.882;12.592;2022-09-09T13:53:28;2.60;;;1.13;;
19414;SDS011;9843;48.882;12.592;2022-09-09T13:55:55;1.23;;;0.93;;
19414;SDS011;9843;48.882;12.592;2022-09-09T13:58:22;4.20;;;1.20;;
19414;SDS011;9843;48.882;12.592;2022-09-09T14:00:51;2.80;;;1.57;;
19414;SDS011;9843;48.882;12.592;2022-09-09T14:03:19;3.93;;;1.33;;
19414;SDS011;9843;48.882;12.592;2022-09-09T14:05:46;1.80;;;0.87;;
19414;SDS011;9843;48.882;12.592;2022-09-09T14:08:15;0.70;;;0.70;;
19414;SDS011;9843;48.882;12.592;2022-09-09T14:10:53;2.37;;;1.00;;
19414;SDS011;9843;48.882;12.592;2022-09-09T14:13:20;4.43;;;0.80;;
19414;SDS011;9843;48.882;12.592;2022-09-09T14:15:48;1.67;;;0.80;;
19414;SDS011;9843;48.882;12.592;2022-09-09T14:18:16;2.83;;;0.83;;
19414;SDS011;9843;48.882;12.592;2022-09-09T14:20:44;2.53;;;0.90;;
19414;SDS011;9843;48.882;12.592;2022-09-09T14:23:11;1.10;;;0.80;;
19414;SDS011;9843;48.882;12.592;2022-09-09T14:25:41;2.57;;;1.63;;
19414;SDS011;9843;48.882;12.592;2022-09-09T14:28:09;1.73;;;0.80;;
19414;SDS011;9843;48.882;12.592;2022-09-09T14:30:38;4.10;;;1.77;;
19414;SDS011;9843;48.882;12.592;2022-09-09T14:33:06;1.03;;;1.00;;
19414;SDS011;9843;48.882;12.592;2022-09-09T14:35:34;2.77;;;1.20;;
19414;SDS011;9843;48.882;12.592;2022-09-09T14:38:01;2.00;;;1.03;;
19414;SDS011;9843;48.882;12.592;2022-09-09T14:40:29;1.33;;;0.87;;
19414;SDS011;9843;48.882;12.592;2022-09-09T14:42:56;7.33;;;2.10;;
19414;SDS011;9843;48.882;12.592;2022-09-09T14:45:24;1.53;;;1.20;;
19414;SDS011;9843;48.882;12.592;2022-09-09T14:47:51;6.27;;;1.10;;
19414;SDS011;9843;48.882;12.592;2022-09-09T14:50:18;3.37;;;2.00;;
19414;SDS011;9843;48.882;12.592;2022-09-09T14:52:48;3.40;;;2.13;;
19414;SDS011;9843;48.882;12.592;2022-09-09T14:55:15;3.70;;;1.57;;
19414;SDS011;9843;48.882;12.592;2022-09-09T14:57:43;2.53;;;1.47;;
19414;SDS011;9843;48.882;12.592;2022-09-09T15:00:10;1.67;;;1.53;;
19414;SDS011;9843;48.882;12.592;2022-09-09T15:02:38;1.93;;;1.20;;
19414;SDS011;9843;48.882;12.592;2022-09-09T15:05:05;2.93;;;1.77;;
19414;SDS011;9843;48.882;12.592;2022-09-09T15:07:34;3.10;;;1.30;;